createdAt,value
2023-03-27T00:00:13.463Z,97.10
2023-03-27T00:02:48.863Z,97.50
2023-03-27T00:05:21.384Z,97.80
2023-03-27T00:07:55.881Z,99.90
2023-03-27T00:10:29.022Z,99.90
2023-03-27T00:13:03.531Z,98.50
2023-03-27T00:15:39.840Z,98.70
2023-03-27T00:18:13.504Z,98.80
2023-03-27T00:20:45.763Z,98.90
2023-03-27T00:23:20.114Z,99.00
2023-03-27T00:25:52.381Z,99.10
2023-03-27T00:28:27.318Z,99.30
2023-03-27T00:31:02.531Z,99.40
2023-03-27T00:33:34.707Z,99.50
2023-03-27T00:36:07.879Z,99.60
2023-03-27T00:38:40.102Z,99.70
2023-03-27T00:41:12.904Z,99.80
2023-03-27T00:43:45.498Z,99.80
2023-03-27T00:46:32.057Z,99.90
2023-03-27T00:49:08.407Z,99.90
2023-03-27T00:51:41.264Z,99.90
2023-03-27T00:54:16.416Z,99.90
2023-03-27T00:56:50.092Z,99.90
2023-03-27T00:59:23.740Z,99.90
2023-03-27T01:01:58.884Z,99.90
2023-03-27T01:04:31.986Z,99.90
2023-03-27T01:07:07.031Z,99.90
2023-03-27T01:09:39.204Z,99.90
2023-03-27T01:12:22.809Z,99.90
2023-03-27T01:15:16.154Z,99.90
2023-03-27T01:18:02.722Z,99.90
2023-03-27T01:21:08.574Z,99.90
2023-03-27T01:24:05.724Z,99.90
2023-03-27T01:26:58.455Z,99.90
2023-03-27T01:29:47.105Z,99.90
2023-03-27T01:32:46.680Z,99.90
2023-03-27T01:35:52.943Z,99.90
2023-03-27T01:38:54.763Z,99.90
2023-03-27T01:41:33.452Z,99.90
2023-03-27T01:44:14.164Z,99.90
2023-03-27T01:46:50.356Z,99.90
2023-03-27T01:49:28.288Z,99.90
2023-03-27T01:52:03.634Z,99.90
2023-03-27T01:54:38.445Z,99.90
2023-03-27T01:57:22.354Z,99.90
2023-03-27T02:00:17.510Z,99.90
2023-03-27T02:02:56.076Z,99.90
2023-03-27T02:05:32.671Z,99.90
2023-03-27T02:08:10.687Z,99.90
2023-03-27T02:10:48.307Z,99.90
2023-03-27T02:13:27.159Z,99.90
2023-03-27T02:16:02.693Z,99.90
2023-03-27T02:18:38.191Z,99.90
2023-03-27T02:21:10.268Z,99.90
2023-03-27T02:23:43.696Z,99.90
2023-03-27T02:26:15.913Z,99.90
2023-03-27T02:29:08.463Z,99.90
2023-03-27T02:32:02.079Z,99.90
2023-03-27T02:34:50.516Z,99.90
2023-03-27T02:37:33.043Z,99.90
2023-03-27T02:40:10.638Z,99.90
2023-03-27T02:42:46.146Z,99.90
2023-03-27T02:45:24.222Z,99.90
2023-03-27T02:47:58.393Z,99.90
2023-03-27T02:50:31.973Z,99.90
2023-03-27T02:53:04.976Z,99.90
2023-03-27T02:55:39.152Z,99.90
2023-03-27T02:58:13.269Z,99.90
2023-03-27T03:00:49.205Z,99.90
2023-03-27T03:03:28.106Z,99.90
2023-03-27T03:06:00.418Z,99.90
2023-03-27T03:08:38.718Z,99.90
2023-03-27T03:11:14.436Z,99.90
2023-03-27T03:13:46.550Z,99.90
2023-03-27T03:16:21.247Z,99.90
2023-03-27T03:18:53.232Z,99.90
2023-03-27T03:21:25.614Z,99.90
2023-03-27T03:23:59.272Z,99.90
2023-03-27T03:26:32.437Z,99.90
2023-03-27T03:29:04.729Z,99.90
2023-03-27T03:31:45.002Z,99.90
2023-03-27T03:34:18.645Z,99.90
2023-03-27T03:36:50.852Z,99.90
2023-03-27T03:39:22.827Z,99.90
2023-03-27T03:41:54.856Z,99.90
2023-03-27T03:44:26.849Z,99.90
2023-03-27T03:47:01.389Z,99.90
2023-03-27T03:49:33.274Z,99.90
2023-03-27T03:52:05.420Z,99.90
2023-03-27T03:54:38.880Z,99.90
2023-03-27T03:57:11.102Z,99.90
2023-03-27T03:59:43.418Z,99.90
2023-03-27T04:02:30.063Z,99.90
2023-03-27T04:05:08.787Z,99.90
2023-03-27T04:07:42.552Z,99.90
2023-03-27T04:10:14.805Z,99.90
2023-03-27T04:12:47.638Z,99.90
2023-03-27T04:15:20.042Z,99.90
2023-03-27T04:17:54.847Z,99.90
2023-03-27T04:20:27.025Z,99.90
2023-03-27T04:23:02.375Z,99.90
2023-03-27T04:25:34.557Z,99.90
2023-03-27T04:28:06.656Z,99.90
2023-03-27T04:30:38.892Z,99.80
2023-03-27T04:33:19.356Z,99.70
2023-03-27T04:36:06.176Z,99.60
2023-03-27T04:38:40.993Z,99.60
2023-03-27T04:41:13.074Z,99.50
2023-03-27T04:43:46.315Z,99.40
2023-03-27T04:46:18.544Z,99.30
2023-03-27T04:48:53.708Z,99.10
2023-03-27T04:51:26.864Z,99.10
2023-03-27T04:53:59.007Z,99.00
2023-03-27T04:56:34.010Z,98.90
2023-03-27T04:59:06.187Z,98.80
2023-03-27T05:01:38.323Z,98.80
2023-03-27T05:04:13.033Z,98.80
2023-03-27T05:06:45.112Z,98.80
2023-03-27T05:09:17.383Z,98.80
2023-03-27T05:11:50.404Z,98.70
2023-03-27T05:14:23.697Z,98.60
2023-03-27T05:16:58.038Z,98.50
2023-03-27T05:19:32.695Z,98.40
2023-03-27T05:22:04.870Z,98.40
2023-03-27T05:24:37.948Z,98.40
2023-03-27T05:27:10.454Z,98.50
2023-03-27T05:29:47.063Z,98.40
2023-03-27T05:32:19.950Z,98.40
2023-03-27T05:34:57.352Z,98.20
2023-03-27T05:37:29.446Z,98.20
2023-03-27T05:40:01.580Z,99.90
2023-03-27T05:42:33.740Z,99.00
2023-03-27T05:45:06.789Z,98.20
2023-03-27T05:47:44.825Z,98.00
2023-03-27T05:50:21.385Z,98.00
2023-03-27T05:52:57.513Z,97.90
2023-03-27T05:55:30.045Z,97.90
2023-03-27T05:58:02.501Z,97.90
2023-03-27T06:00:37.291Z,97.80
2023-03-27T06:03:12.517Z,97.80
2023-03-27T06:05:49.017Z,97.70
2023-03-27T06:08:21.342Z,97.60
2023-03-27T06:10:54.520Z,97.60
2023-03-27T06:13:26.764Z,97.60
2023-03-27T06:15:59.050Z,98.50
2023-03-27T06:18:32.008Z,99.90
2023-03-27T06:21:07.526Z,99.00
2023-03-27T06:23:39.958Z,99.90
2023-03-27T06:26:12.297Z,98.90
2023-03-27T06:28:44.586Z,99.20
2023-03-27T06:31:17.834Z,99.30
2023-03-27T06:33:50.370Z,99.90
2023-03-27T06:36:25.275Z,99.80
2023-03-27T06:38:57.412Z,99.40
2023-03-27T06:41:29.497Z,99.80
2023-03-27T06:44:01.791Z,99.40
2023-03-27T06:46:43.093Z,99.50
2023-03-27T06:49:17.444Z,99.50
2023-03-27T06:51:52.505Z,99.40
2023-03-27T06:54:24.627Z,98.90
2023-03-27T06:56:56.821Z,98.50
2023-03-27T06:59:28.947Z,98.50
2023-03-27T07:02:01.508Z,98.40
2023-03-27T07:04:33.644Z,98.40
2023-03-27T07:07:08.342Z,98.30
2023-03-27T07:09:41.001Z,98.30
2023-03-27T07:12:13.144Z,98.30
2023-03-27T07:14:45.382Z,98.10
2023-03-27T07:17:17.571Z,98.10
2023-03-27T07:19:49.713Z,98.10
2023-03-27T07:22:24.528Z,98.00
2023-03-27T07:24:56.646Z,97.80
2023-03-27T07:27:28.755Z,97.80
2023-03-27T07:30:01.636Z,97.80
2023-03-27T07:32:37.570Z,97.90
2023-03-27T07:35:11.169Z,97.90
2023-03-27T07:37:46.830Z,97.80
2023-03-27T07:40:26.611Z,97.80
2023-03-27T07:43:07.391Z,97.70
2023-03-27T07:45:39.821Z,97.50
2023-03-27T07:48:16.366Z,97.40
2023-03-27T07:50:48.551Z,97.30
2023-03-27T07:53:33.949Z,97.10
2023-03-27T07:56:08.874Z,97.10
2023-03-27T07:58:41.177Z,97.00
2023-03-27T08:01:13.579Z,97.00
2023-03-27T08:03:47.557Z,96.80
2023-03-27T08:06:19.856Z,96.80
2023-03-27T08:08:54.772Z,96.80
2023-03-27T08:11:30.741Z,96.70
2023-03-27T08:14:03.975Z,96.60
2023-03-27T08:16:36.817Z,96.20
2023-03-27T08:19:10.483Z,96.10
2023-03-27T08:21:42.559Z,95.90
2023-03-27T08:24:17.318Z,95.70
2023-03-27T08:26:49.549Z,95.60
2023-03-27T08:29:21.650Z,95.40
2023-03-27T08:31:54.109Z,95.30
2023-03-27T08:34:26.636Z,95.30
2023-03-27T08:36:58.745Z,95.20
2023-03-27T08:39:33.421Z,95.20
2023-03-27T08:42:08.504Z,95.00
2023-03-27T08:44:40.679Z,94.90
2023-03-27T08:47:17.161Z,95.00
2023-03-27T08:49:55.082Z,94.80
2023-03-27T08:52:32.101Z,94.70
2023-03-27T08:55:15.508Z,94.60
2023-03-27T08:57:50.576Z,94.50
2023-03-27T09:00:27.970Z,94.40
2023-03-27T09:03:08.197Z,94.10
2023-03-27T09:05:44.770Z,94.10
2023-03-27T09:08:28.006Z,94.20
2023-03-27T09:11:09.487Z,94.20
2023-03-27T09:13:45.968Z,94.20
2023-03-27T09:16:22.947Z,94.20
2023-03-27T09:19:01.546Z,94.20
2023-03-27T09:21:40.270Z,93.90
2023-03-27T09:24:17.616Z,93.40
2023-03-27T09:27:04.481Z,93.00
2023-03-27T09:29:41.560Z,92.80
2023-03-27T09:32:15.715Z,92.90
2023-03-27T09:34:48.310Z,93.00
2023-03-27T09:37:20.467Z,92.60
2023-03-27T09:39:54.836Z,92.60
2023-03-27T09:42:33.476Z,92.30
2023-03-27T09:45:08.392Z,92.30
2023-03-27T09:47:45.260Z,92.40
2023-03-27T09:50:27.665Z,92.20
2023-03-27T09:53:08.763Z,91.80
2023-03-27T09:55:53.114Z,91.60
2023-03-27T09:58:32.414Z,91.40
2023-03-27T10:01:16.882Z,91.20
2023-03-27T10:03:51.146Z,91.20
2023-03-27T10:06:28.468Z,91.10
2023-03-27T10:09:07.408Z,90.80
2023-03-27T10:11:40.270Z,90.80
2023-03-27T10:14:18.969Z,90.60
2023-03-27T10:16:51.211Z,90.40
2023-03-27T10:19:27.893Z,90.50
2023-03-27T10:22:04.484Z,90.70
2023-03-27T10:24:45.820Z,90.30
2023-03-27T10:27:20.634Z,90.20
2023-03-27T10:29:55.337Z,90.00
2023-03-27T10:32:43.383Z,89.70
2023-03-27T10:35:27.491Z,88.90
2023-03-27T10:38:01.422Z,88.40
2023-03-27T10:40:37.067Z,87.60
2023-03-27T10:43:12.846Z,87.30
2023-03-27T10:45:51.905Z,87.30
2023-03-27T10:48:37.450Z,86.90
2023-03-27T10:51:43.124Z,86.90
2023-03-27T10:54:33.034Z,86.70
2023-03-27T10:57:12.639Z,86.80
2023-03-27T10:59:50.811Z,86.40
2023-03-27T11:02:28.182Z,86.30
2023-03-27T11:05:04.481Z,86.20
2023-03-27T11:07:42.659Z,85.40
2023-03-27T11:10:20.018Z,85.40
2023-03-27T11:12:56.281Z,85.00
2023-03-27T11:15:33.308Z,84.50
2023-03-27T11:18:12.375Z,84.60
2023-03-27T11:20:47.476Z,84.90
2023-03-27T11:23:22.142Z,84.60
2023-03-27T11:25:55.102Z,84.80
2023-03-27T11:28:39.803Z,84.70
2023-03-27T11:31:19.198Z,84.80
2023-03-27T11:34:00.347Z,83.90
2023-03-27T11:36:46.692Z,83.80
2023-03-27T11:39:25.426Z,83.90
2023-03-27T11:42:00.232Z,84.10
2023-03-27T11:44:32.365Z,84.10
2023-03-27T11:47:23.663Z,84.10
2023-03-27T11:50:09.090Z,83.40
2023-03-27T11:52:52.326Z,82.60
2023-03-27T11:55:33.173Z,83.40
2023-03-27T11:58:19.737Z,84.10
2023-03-27T12:01:02.028Z,99.10
2023-03-27T12:04:09.426Z,99.30
2023-03-27T12:06:58.125Z,92.10
2023-03-27T12:09:52.689Z,84.10
2023-03-27T12:12:39.075Z,83.40
2023-03-27T12:15:26.845Z,83.20
2023-03-27T12:18:05.749Z,82.50
2023-03-27T12:20:53.413Z,81.70
2023-03-27T12:23:57.951Z,80.80
2023-03-27T12:27:03.164Z,80.20
2023-03-27T12:29:53.746Z,79.20
2023-03-27T12:32:54.766Z,78.80
2023-03-27T12:35:31.641Z,79.40
2023-03-27T12:38:08.503Z,79.80
2023-03-27T12:40:49.792Z,80.30
2023-03-27T12:43:27.779Z,81.20
2023-03-27T12:46:11.498Z,82.50
2023-03-27T12:48:52.878Z,84.40
2023-03-27T12:51:38.275Z,85.30
2023-03-27T12:54:25.183Z,84.80
2023-03-27T12:57:06.796Z,84.00
2023-03-27T13:02:52.282Z,93.90
2023-03-27T13:08:45.578Z,99.90
2023-03-27T13:11:35.993Z,85.00
2023-03-27T13:14:22.781Z,81.30
2023-03-27T13:17:21.333Z,78.90
2023-03-27T13:19:59.707Z,76.40
2023-03-27T13:22:48.312Z,74.60
2023-03-27T13:25:43.785Z,74.70
2023-03-27T13:28:31.527Z,75.00
2023-03-27T13:31:06.054Z,74.60
2023-03-27T13:33:45.783Z,84.30
2023-03-27T13:36:20.925Z,85.40
2023-03-27T13:39:24.865Z,86.80
2023-03-27T13:44:47.162Z,98.80
2023-03-27T13:47:49.224Z,92.00
2023-03-27T13:51:03.341Z,91.30
2023-03-27T13:53:56.755Z,91.40
2023-03-27T13:56:48.821Z,90.40
2023-03-27T13:59:58.585Z,89.20
2023-03-27T14:02:58.507Z,89.60
2023-03-27T14:06:14.952Z,88.40
2023-03-27T14:08:49.342Z,82.10
2023-03-27T14:11:38.135Z,78.50
2023-03-27T14:14:40.683Z,82.40
2023-03-27T14:17:31.796Z,79.80
2023-03-27T14:20:21.024Z,80.20
2023-03-27T14:22:58.162Z,81.60
2023-03-27T14:25:34.397Z,83.10
2023-03-27T14:28:10.497Z,84.60
2023-03-27T14:30:45.531Z,86.70
2023-03-27T14:33:20.261Z,87.40
2023-03-27T14:35:54.841Z,85.50
2023-03-27T14:38:31.084Z,84.20
2023-03-27T14:41:05.288Z,83.30
2023-03-27T14:43:37.462Z,82.60
2023-03-27T14:46:11.974Z,82.10
2023-03-27T14:48:46.221Z,82.30
2023-03-27T14:51:20.845Z,82.20
2023-03-27T14:54:02.432Z,82.20
2023-03-27T14:56:38.175Z,82.60
2023-03-27T14:59:14.012Z,82.90
2023-03-27T15:01:47.601Z,83.00
2023-03-27T15:04:19.694Z,82.60
2023-03-27T15:06:56.165Z,82.40
2023-03-27T15:09:31.150Z,82.20
2023-03-27T15:12:04.356Z,81.50
2023-03-27T15:14:37.879Z,81.70
2023-03-27T15:17:12.483Z,81.30
2023-03-27T15:19:49.132Z,81.30
2023-03-27T15:22:27.830Z,81.60
2023-03-27T15:25:05.687Z,82.00
2023-03-27T15:27:40.886Z,82.50
2023-03-27T15:30:25.486Z,83.40
2023-03-27T15:33:02.273Z,83.80
2023-03-27T15:35:37.046Z,84.40
2023-03-27T15:38:14.300Z,85.00
2023-03-27T15:41:00.673Z,85.30
2023-03-27T15:43:34.320Z,85.50
2023-03-27T15:46:17.296Z,85.30
2023-03-27T15:48:55.544Z,85.20
2023-03-27T15:51:30.064Z,85.20
2023-03-27T15:54:29.246Z,85.50
2023-03-27T15:57:10.148Z,85.70
2023-03-27T15:59:52.560Z,86.20
2023-03-27T16:02:26.699Z,85.90
2023-03-27T16:04:59.529Z,86.20
2023-03-27T16:07:43.884Z,86.30
2023-03-27T16:10:28.967Z,86.50
2023-03-27T16:13:03.198Z,86.50
2023-03-27T16:15:37.586Z,86.80
2023-03-27T16:18:18.862Z,87.40
2023-03-27T16:20:51.168Z,88.00
2023-03-27T16:23:23.269Z,88.50
2023-03-27T16:25:58.910Z,89.00
2023-03-27T16:28:31.703Z,89.70
2023-03-27T16:31:12.085Z,90.20
2023-03-27T16:33:46.179Z,90.50
2023-03-27T16:36:20.862Z,90.70
2023-03-27T16:38:53.085Z,90.90
2023-03-27T16:41:27.854Z,91.10
2023-03-27T16:43:59.799Z,91.20
2023-03-27T16:46:32.571Z,91.30
2023-03-27T16:49:04.905Z,91.40
2023-03-27T16:51:37.015Z,91.50
2023-03-27T16:54:09.137Z,91.70
2023-03-27T16:56:43.735Z,91.80
2023-03-27T16:59:16.727Z,92.00
2023-03-27T17:01:48.738Z,92.10
2023-03-27T17:04:21.050Z,92.30
2023-03-27T17:06:53.021Z,92.40
2023-03-27T17:09:24.910Z,92.60
2023-03-27T17:11:59.580Z,92.60
2023-03-27T17:14:31.529Z,92.70
2023-03-27T17:17:03.546Z,92.70
2023-03-27T17:19:35.682Z,92.70
2023-03-27T17:22:07.596Z,92.70
2023-03-27T17:24:53.426Z,92.70
2023-03-27T17:27:30.775Z,92.70
2023-03-27T17:30:04.007Z,92.80
2023-03-27T17:32:35.916Z,92.60
2023-03-27T17:35:08.360Z,92.60
2023-03-27T17:37:40.407Z,92.50
2023-03-27T17:40:12.659Z,92.60
2023-03-27T17:42:47.207Z,92.60
2023-03-27T17:45:19.105Z,92.60
2023-03-27T17:47:51.227Z,92.60
2023-03-27T17:50:23.152Z,92.50
2023-03-27T17:52:55.100Z,92.40
2023-03-27T17:55:26.998Z,92.30
2023-03-27T17:58:08.785Z,92.30
2023-03-27T18:00:41.635Z,92.20
2023-03-27T18:03:13.884Z,92.20
2023-03-27T18:05:45.871Z,92.20
2023-03-27T18:08:18.264Z,92.20
2023-03-27T18:10:50.630Z,92.10
2023-03-27T18:13:25.538Z,92.10
2023-03-27T18:15:58.426Z,92.20
2023-03-27T18:18:30.669Z,92.50
2023-03-27T18:21:02.575Z,92.30
2023-03-27T18:23:35.302Z,92.30
2023-03-27T18:26:07.564Z,92.30
2023-03-27T18:28:42.073Z,92.20
2023-03-27T18:31:14.077Z,92.30
2023-03-27T18:33:46.093Z,92.40
2023-03-27T18:36:18.033Z,92.50
2023-03-27T18:38:50.520Z,92.50
2023-03-27T18:41:22.392Z,92.50
2023-03-27T18:43:56.860Z,92.50
2023-03-27T18:46:29.026Z,92.50
2023-03-27T18:49:10.300Z,92.50
2023-03-27T18:51:49.690Z,92.60
2023-03-27T18:54:21.755Z,92.80
2023-03-27T18:56:53.918Z,92.80
2023-03-27T18:59:28.634Z,92.90
2023-03-27T19:02:00.908Z,93.10
2023-03-27T19:04:33.033Z,93.20
2023-03-27T19:07:06.567Z,93.30
2023-03-27T19:09:41.892Z,93.40
2023-03-27T19:12:14.241Z,93.50
2023-03-27T19:14:48.967Z,93.50
2023-03-27T19:17:21.271Z,93.70
2023-03-27T19:19:55.021Z,93.90
2023-03-27T19:22:27.127Z,94.00
2023-03-27T19:24:59.230Z,94.30
2023-03-27T19:27:38.508Z,96.40
2023-03-27T19:30:15.002Z,98.10
2023-03-27T19:32:47.135Z,99.00
2023-03-27T19:35:20.289Z,98.80
2023-03-27T19:37:52.596Z,98.30
2023-03-27T19:40:24.841Z,97.60
2023-03-27T19:42:56.965Z,96.90
2023-03-27T19:45:31.654Z,96.10
2023-03-27T19:48:04.238Z,95.10
2023-03-27T19:50:36.435Z,94.20
2023-03-27T19:53:09.165Z,93.30
2023-03-27T19:55:42.385Z,92.50
2023-03-27T19:58:14.590Z,91.80
2023-03-27T20:00:50.907Z,91.20
2023-03-27T20:03:24.456Z,90.50
2023-03-27T20:06:07.640Z,90.10
2023-03-27T20:08:41.068Z,89.50
2023-03-27T20:11:13.152Z,88.30
2023-03-27T20:13:55.414Z,87.70
2023-03-27T20:16:31.011Z,87.00
2023-03-27T20:19:05.697Z,86.30
2023-03-27T20:21:39.123Z,86.00
2023-03-27T20:24:12.180Z,85.40
2023-03-27T20:26:48.295Z,84.90
2023-03-27T20:29:21.408Z,84.50
2023-03-27T20:31:56.030Z,83.90
2023-03-27T20:34:28.127Z,83.50
2023-03-27T20:37:01.019Z,83.10
2023-03-27T20:39:33.715Z,82.80
2023-03-27T20:42:07.841Z,82.40
2023-03-27T20:44:39.727Z,82.20
2023-03-27T20:47:15.382Z,81.80
2023-03-27T20:49:47.649Z,81.40
2023-03-27T20:52:19.931Z,81.00
2023-03-27T20:54:51.857Z,80.60
2023-03-27T20:57:24.229Z,80.20
2023-03-27T20:59:56.632Z,80.00
2023-03-27T21:02:31.437Z,79.80
2023-03-27T21:05:03.717Z,79.50
2023-03-27T21:07:38.266Z,79.30
2023-03-27T21:10:10.940Z,79.20
2023-03-27T21:12:43.152Z,79.20
2023-03-27T21:15:15.196Z,79.00
2023-03-27T21:17:49.821Z,78.90
2023-03-27T21:20:21.740Z,78.70
2023-03-27T21:22:53.613Z,78.60
2023-03-27T21:25:25.556Z,78.40
2023-03-27T21:27:57.523Z,78.30
2023-03-27T21:30:47.129Z,78.20
2023-03-27T21:33:23.105Z,78.20
2023-03-27T21:35:55.032Z,78.10
2023-03-27T21:38:26.935Z,78.00
2023-03-27T21:41:00.990Z,77.90
2023-03-27T21:43:33.154Z,78.20
2023-03-27T21:46:05.469Z,77.70
2023-03-27T21:48:44.796Z,77.50
2023-03-27T21:51:16.766Z,77.40
2023-03-27T21:53:48.713Z,77.30
2023-03-27T21:56:20.872Z,77.10
2023-03-27T21:58:52.917Z,77.00
2023-03-27T22:01:24.981Z,77.00
2023-03-27T22:04:02.233Z,76.90
2023-03-27T22:06:34.385Z,76.90
2023-03-27T22:09:06.294Z,76.70
2023-03-27T22:11:38.240Z,76.60
2023-03-27T22:14:10.351Z,76.00
2023-03-27T22:16:43.600Z,75.40
2023-03-27T22:19:18.136Z,75.00
2023-03-27T22:21:50.340Z,74.90
2023-03-27T22:24:22.583Z,75.00
2023-03-27T22:26:54.772Z,75.10
2023-03-27T22:29:26.909Z,75.30
2023-03-27T22:31:59.251Z,75.60
2023-03-27T22:34:33.978Z,75.90
2023-03-27T22:37:06.878Z,76.30
2023-03-27T22:39:39.058Z,76.70
2023-03-27T22:42:11.491Z,77.20
2023-03-27T22:44:43.846Z,77.60
2023-03-27T22:47:16.207Z,77.90
2023-03-27T22:49:51.184Z,78.30
2023-03-27T22:52:23.287Z,78.60
2023-03-27T22:54:55.609Z,78.90
2023-03-27T22:57:27.703Z,79.20
2023-03-27T22:59:59.799Z,79.60
2023-03-27T23:02:31.941Z,79.70
2023-03-27T23:05:07.404Z,80.00
2023-03-27T23:07:39.478Z,80.20
2023-03-27T23:10:11.674Z,80.30
2023-03-27T23:12:43.762Z,80.60
2023-03-27T23:15:16.165Z,80.70
2023-03-27T23:18:02.843Z,80.90
2023-03-27T23:20:37.566Z,81.20
2023-03-27T23:23:09.635Z,81.30
2023-03-27T23:25:42.691Z,81.50
2023-03-27T23:28:14.873Z,81.70
2023-03-27T23:30:53.172Z,81.90
2023-03-27T23:33:25.500Z,82.00
2023-03-27T23:36:06.193Z,82.10
2023-03-27T23:38:39.032Z,82.30
2023-03-27T23:41:12.848Z,82.40
2023-03-27T23:43:45.449Z,82.70
2023-03-27T23:46:17.755Z,82.90
2023-03-27T23:48:49.945Z,83.00
2023-03-27T23:51:24.639Z,83.20
2023-03-27T23:53:56.704Z,83.30
2023-03-27T23:56:28.759Z,83.40
2023-03-27T23:59:00.864Z,83.60
